Time;durP1;ratioP1;P1;durP2;ratioP2;P2;SDS_P1;SDS_P2;PMS_P1;PMS_P2;Temp;Humidity;BMP_temperature;BMP_pressure;BME280_temperature;BME280_humidity;BME280_pressure;Samples;Min_cycle;Max_cycle;Signal;HPM_P1;HPM_P2
2021/07/16 00:00:48;;;;;;;;;8.00;7.75;;;;;20.21;57.65;101679.38;6341129;22;45503;-71
2021/07/16 00:03:13;;;;;;;;;9.25;7.75;;;;;20.53;57.13;101739.00;6340291;22;45143;-70
2021/07/16 00:05:39;;;;;;;;;10.00;8.50;;;;;20.28;57.60;101694.34;6341052;22;45334;-70
2021/07/16 00:08:04;;;;;;;;;8.25;8.00;;;;;20.30;57.30;101692.44;6340832;22;45155;-70
2021/07/16 00:10:30;;;;;;;;;9.75;9.75;;;;;20.48;57.36;101723.03;6340636;22;45263;-70
2021/07/16 00:12:55;;;;;;;;;14.00;11.75;;;;;20.11;57.48;101665.53;6340523;22;45179;-70
2021/07/16 00:15:21;;;;;;;;;11.75;10.75;;;;;20.33;57.86;101708.53;6340919;22;45219;-70
2021/07/16 00:17:48;;;;;;;;;7.75;7.25;;;;;20.26;57.38;101700.81;6312275;22;45247;-71
2021/07/16 00:20:14;;;;;;;;;10.25;9.00;;;;;20.47;57.80;101733.97;6341092;22;45507;-71
2021/07/16 00:22:39;;;;;;;;;9.25;8.75;;;;;20.26;57.54;101693.56;6339995;22;45533;-70
2021/07/16 00:25:07;;;;;;;;;10.00;9.00;;;;;20.38;57.46;101704.66;6341108;22;45251;-70
2021/07/16 00:27:33;;;;;;;;;9.50;9.50;;;;;20.38;57.78;101701.94;6312200;22;45220;-70
2021/07/16 00:30:00;;;;;;;;;16.00;12.50;;;;;20.34;57.64;101701.25;6342043;22;46343;-71
2021/07/16 00:32:25;;;;;;;;;10.50;9.50;;;;;20.23;57.92;101685.63;6341679;22;45278;-71
2021/07/16 00:34:51;;;;;;;;;12.25;11.00;;;;;20.30;57.80;101692.44;6342465;22;45644;-70
2021/07/16 00:37:16;;;;;;;;;12.25;10.50;;;;;20.33;57.73;101702.19;6313513;22;45810;-71
2021/07/16 00:39:42;;;;;;;;;9.25;9.25;;;;;20.25;58.22;101689.13;6341926;22;46008;-71
2021/07/16 00:42:07;;;;;;;;;11.00;10.00;;;;;20.29;57.98;101700.66;6341959;22;45444;-71
2021/07/16 00:44:35;;;;;;;;;12.50;12.00;;;;;20.34;57.79;101709.38;6342621;22;45212;-71
2021/07/16 00:47:01;;;;;;;;;11.25;11.25;;;;;20.49;58.07;101732.88;6341668;22;45294;-71
2021/07/16 00:49:28;;;;;;;;;10.00;9.50;;;;;20.19;57.97;101681.31;6342013;22;45359;-71
2021/07/16 00:51:54;;;;;;;;;9.00;8.00;;;;;20.44;57.97;101726.88;6342260;22;45203;-71
2021/07/16 00:54:19;;;;;;;;;13.00;10.25;;;;;20.34;58.31;101709.38;6342046;22;45313;-71
2021/07/16 00:56:45;;;;;;;;;9.75;7.50;;;;;20.33;58.53;101713.03;6342095;22;45176;-71
2021/07/16 00:59:14;;;;;;;;;9.75;8.75;;;;;20.22;58.10;101694.72;6341962;22;45220;-71
2021/07/16 01:01:41;;;;;;;;;9.00;8.50;;;;;20.21;58.29;101692.94;6341815;22;45577;-71
2021/07/16 01:04:07;;;;;;;;;12.75;11.25;;;;;20.48;58.19;101733.88;6341527;22;45208;-70
2021/07/16 01:06:32;;;;;;;;;13.00;11.25;;;;;20.30;57.97;101702.41;6342090;22;45104;-71
2021/07/16 01:08:58;;;;;;;;;9.50;9.50;;;;;20.31;58.11;101702.31;6341923;22;46235;-70
2021/07/16 01:11:23;;;;;;;;;9.50;8.75;;;;;20.29;58.14;101706.94;6341853;22;45285;-71
2021/07/16 01:13:49;;;;;;;;;8.75;8.00;;;;;20.23;58.35;101693.75;6342134;22;45325;-71
2021/07/16 01:16:14;;;;;;;;;11.75;10.00;;;;;20.25;58.31;101699.97;6341971;22;45500;-70
2021/07/16 01:18:40;;;;;;;;;9.00;8.00;;;;;20.41;58.31;101734.31;6341707;22;46563;-70
2021/07/16 01:21:06;;;;;;;;;11.25;9.00;;;;;20.34;58.43;101718.38;6341904;22;45203;-70
2021/07/16 01:23:31;;;;;;;;;10.50;9.50;;;;;20.36;58.49;101735.47;6341068;22;45250;-71
2021/07/16 01:25:57;;;;;;;;;11.75;9.50;;;;;20.32;58.26;101736.59;6341854;22;45352;-71
2021/07/16 01:28:22;;;;;;;;;9.25;9.00;;;;;20.17;58.52;101699.53;6341893;22;45290;-70
2021/07/16 01:30:53;;;;;;;;;9.75;9.00;;;;;20.34;58.81;101726.50;6342025;22;45202;-70
2021/07/16 01:33:21;;;;;;;;;10.00;9.00;;;;;20.23;58.91;101712.72;6313254;22;45342;-71
2021/07/16 01:35:46;;;;;;;;;11.75;11.50;;;;;20.15;58.49;101701.47;6341938;22;45450;-70
2021/07/16 01:38:12;;;;;;;;;7.25;6.75;;;;;20.13;58.70;101714.19;6341914;22;45215;-70
2021/07/16 01:40:39;;;;;;;;;10.50;8.25;;;;;20.05;58.92;101690.25;6341544;22;45321;-71
2021/07/16 01:43:07;;;;;;;;;10.00;10.00;;;;;20.09;58.92;101696.38;6341895;22;45423;-71
2021/07/16 01:45:34;;;;;;;;;9.50;8.00;;;;;20.18;59.05;101710.28;6341560;22;45186;-71
2021/07/16 01:48:07;;;;;;;;;7.50;7.50;;;;;20.36;58.87;101737.28;6341284;22;45314;-71
2021/07/16 01:50:34;;;;;;;;;10.25;8.25;;;;;20.28;59.27;101723.28;6341618;22;45085;-71
2021/07/16 01:53:03;;;;;;;;;10.25;8.75;;;;;20.22;58.82;101712.81;6341942;22;45136;-71
2021/07/16 01:55:30;;;;;;;;;7.00;7.00;;;;;20.18;58.52;101713.00;6313514;22;45412;-71
2021/07/16 01:57:58;;;;;;;;;7.75;7.75;;;;;20.08;58.59;101711.78;6341671;22;45363;-71
2021/07/16 02:00:26;;;;;;;;;8.25;8.00;;;;;20.29;59.14;101741.31;6341760;22;45248;-71
2021/07/16 02:02:54;;;;;;;;;9.75;7.50;;;;;19.87;59.19;101677.75;6340568;22;45309;-70
2021/07/16 02:05:20;;;;;;;;;11.50;7.75;;;;;20.10;59.37;101714.41;6341778;22;45889;-70
2021/07/16 02:07:51;;;;;;;;;12.50;9.00;;;;;19.97;59.02;101698.81;6339606;22;47061;-71
2021/07/16 02:10:22;;;;;;;;;10.50;9.00;;;;;20.14;59.55;101715.97;6313475;22;45286;-70
2021/07/16 02:12:48;;;;;;;;;8.75;8.00;;;;;20.11;59.45;101716.13;6313505;22;45188;-71
2021/07/16 02:15:19;;;;;;;;;8.25;7.25;;;;;20.24;59.32;101732.56;6313576;22;45544;-71
2021/07/16 02:17:46;;;;;;;;;7.25;7.25;;;;;20.06;59.53;101704.69;6341454;22;45413;-71
2021/07/16 02:20:27;;;;;;;;;10.50;10.25;;;;;20.03;59.26;101703.03;6341615;22;45320;-71
2021/07/16 02:22:55;;;;;;;;;9.00;8.00;;;;;19.97;59.69;101690.69;6340159;22;45426;-71
2021/07/16 02:25:21;;;;;;;;;12.25;9.00;;;;;20.01;59.35;101701.34;6339582;22;45818;-71
2021/07/16 02:27:49;;;;;;;;;6.25;6.25;;;;;20.10;59.43;101719.81;6341474;22;45729;-71
2021/07/16 02:30:17;;;;;;;;;7.75;7.25;;;;;20.18;59.58;101722.97;6313247;22;45217;-71
2021/07/16 02:32:43;;;;;;;;;8.75;8.75;;;;;20.07;59.67;101693.75;6341570;22;45515;-71
2021/07/16 02:35:09;;;;;;;;;11.25;8.75;;;;;20.02;59.73;101698.56;6341521;22;45222;-71
2021/07/16 02:37:35;;;;;;;;;9.00;7.50;;;;;20.09;59.48;101710.78;6341383;22;45241;-71
2021/07/16 02:40:04;;;;;;;;;9.00;9.00;;;;;20.00;59.88;101700.50;6341913;22;45186;-71
2021/07/16 02:42:29;;;;;;;;;9.00;7.25;;;;;19.90;59.52;101689.28;6341056;22;45156;-71
2021/07/16 02:44:55;;;;;;;;;7.00;6.50;;;;;19.95;59.81;101700.75;6341689;22;45293;-71
2021/07/16 02:47:20;;;;;;;;;8.25;7.75;;;;;19.89;59.78;101687.53;6341096;22;45501;-70
2021/07/16 02:49:45;;;;;;;;;6.75;6.75;;;;;20.02;59.78;101703.13;6313132;22;45706;-71
2021/07/16 02:52:11;;;;;;;;;10.50;7.00;;;;;20.01;59.76;101704.06;6341028;22;45229;-71
2021/07/16 02:54:36;;;;;;;;;8.00;7.00;;;;;19.95;59.71;101687.19;6341497;22;45144;-71
2021/07/16 02:57:03;;;;;;;;;8.50;7.25;;;;;19.89;59.84;101678.53;6313085;22;47031;-71
2021/07/16 02:59:29;;;;;;;;;7.75;7.00;;;;;20.02;59.96;101705.84;6341744;22;45393;-71
2021/07/16 03:01:54;;;;;;;;;9.50;7.00;;;;;20.22;59.85;101732.66;6341459;22;45375;-71
2021/07/16 03:04:21;;;;;;;;;6.25;6.00;;;;;19.92;59.76;101686.50;6341074;22;45372;-71
2021/07/16 03:06:46;;;;;;;;;7.75;7.25;;;;;19.92;60.48;101690.06;6341288;22;46498;-71
2021/07/16 03:09:12;;;;;;;;;6.50;6.50;;;;;19.72;60.37;101663.22;6341703;22;45309;-71
2021/07/16 03:11:38;;;;;;;;;6.00;5.25;;;;;20.09;60.34;101732.47;6341438;22;45274;-71
2021/07/16 03:14:04;;;;;;;;;7.25;6.75;;;;;19.88;60.27;101693.03;6341357;22;45502;-71
2021/07/16 03:16:30;;;;;;;;;6.00;6.00;;;;;19.94;60.50;101711.66;6341151;22;45782;-71
2021/07/16 03:18:59;;;;;;;;;7.50;7.50;;;;;19.95;60.51;101710.72;6341607;22;45279;-71
2021/07/16 03:21:25;;;;;;;;;7.00;6.00;;;;;19.89;60.37;101700.22;6341386;22;45314;-71
2021/07/16 03:23:51;;;;;;;;;5.25;5.25;;;;;20.01;60.53;101715.78;6340530;22;45314;-71
2021/07/16 03:26:16;;;;;;;;;7.75;6.25;;;;;19.92;60.80;101700.91;6312852;22;46841;-71
2021/07/16 03:28:42;;;;;;;;;6.25;6.25;;;;;19.85;60.56;101687.81;6312844;22;45865;-71
2021/07/16 03:31:07;;;;;;;;;7.25;5.50;;;;;19.97;60.90;101706.94;6341618;22;45401;-71
2021/07/16 03:33:33;;;;;;;;;9.00;8.25;;;;;19.91;60.93;101707.31;6312531;22;45106;-70
2021/07/16 03:35:58;;;;;;;;;7.00;6.25;;;;;19.88;60.41;101696.66;6312907;22;47926;-70
2021/07/16 03:38:24;;;;;;;;;6.00;6.00;;;;;19.87;60.96;101697.59;6341377;22;45235;-71
2021/07/16 03:40:54;;;;;;;;;6.75;6.75;;;;;19.78;61.26;101682.75;6339289;22;45154;-71
2021/07/16 03:43:19;;;;;;;;;8.75;7.50;;;;;19.91;60.63;101710.03;6312512;22;45421;-70
2021/07/16 03:45:45;;;;;;;;;7.75;6.00;;;;;19.84;60.99;101702.31;6341338;22;46567;-71
2021/07/16 03:48:10;;;;;;;;;7.25;5.00;;;;;19.91;60.78;101703.72;6340633;22;45258;-70
2021/07/16 03:50:36;;;;;;;;;7.25;6.00;;;;;19.98;61.05;101724.97;6341394;22;45404;-70
2021/07/16 03:53:02;;;;;;;;;6.00;5.00;;;;;19.88;61.23;101706.59;6340734;22;45419;-70
2021/07/16 03:55:28;;;;;;;;;6.25;5.00;;;;;20.05;60.97;101727.34;6312945;22;46288;-70
2021/07/16 03:57:53;;;;;;;;;7.00;4.50;;;;;19.87;60.85;101700.31;6341178;22;45193;-71
2021/07/16 04:00:25;;;;;;;;;7.50;6.75;;;;;19.91;60.90;101711.84;6341357;22;45244;-71
2021/07/16 04:02:51;;;;;;;;;6.75;6.50;;;;;19.75;61.38;101688.31;6340995;22;45233;-71
2021/07/16 04:05:17;;;;;;;;;8.25;7.00;;;;;19.78;61.35;101692.72;6342216;22;45444;-71
2021/07/16 04:07:45;;;;;;;;;5.75;5.00;;;;;20.02;61.19;101730.22;6342302;22;45121;-70
2021/07/16 04:10:13;;;;;;;;;6.00;4.00;;;;;19.87;61.18;101704.84;6342268;22;45242;-71
2021/07/16 04:12:38;;;;;;;;;7.00;6.00;;;;;19.85;61.11;101694.09;6342097;22;45247;-71
2021/07/16 04:15:04;;;;;;;;;5.25;4.25;;;;;19.92;61.47;101713.59;6342266;22;45254;-71
2021/07/16 04:17:32;;;;;;;;;4.50;4.50;;;;;19.80;61.40;101698.91;6341986;22;45337;-71
2021/07/16 04:19:57;;;;;;;;;5.75;4.75;;;;;19.76;61.06;101698.22;6342489;22;45162;-71
2021/07/16 04:22:23;;;;;;;;;6.50;5.50;;;;;19.90;61.34;101726.38;6341696;22;45272;-70
2021/07/16 04:24:50;;;;;;;;;6.00;6.00;;;;;19.69;61.72;101699.47;6342102;22;45505;-71
2021/07/16 04:27:16;;;;;;;;;4.75;4.75;;;;;19.78;61.90;101714.38;6342114;22;45163;-71
2021/07/16 04:29:42;;;;;;;;;5.75;5.75;;;;;19.77;62.10;101712.63;6342637;22;45143;-71
2021/07/16 04:32:09;;;;;;;;;5.50;5.50;;;;;19.97;61.64;101736.75;6313496;22;45442;-71
2021/07/16 04:34:37;;;;;;;;;8.75;6.25;;;;;19.86;61.86;101717.50;6341903;22;45570;-71
2021/07/16 04:37:04;;;;;;;;;5.25;5.25;;;;;19.87;61.96;101732.81;6342051;22;45427;-71
2021/07/16 04:39:31;;;;;;;;;7.50;5.75;;;;;19.86;61.82;101727.47;6342590;22;45219;-71
2021/07/16 04:41:57;;;;;;;;;8.75;5.00;;;;;19.69;62.07;101707.59;6342202;22;45151;-71
2021/07/16 04:44:22;;;;;;;;;4.00;4.00;;;;;19.86;62.12;101750.03;6342166;22;45446;-71
2021/07/16 04:46:49;;;;;;;;;6.25;5.25;;;;;19.65;61.87;101722.28;6341947;22;45392;-70
2021/07/16 04:49:15;;;;;;;;;4.00;4.00;;;;;19.69;62.43;101728.38;6342337;22;45355;-71
2021/07/16 04:51:40;;;;;;;;;7.75;7.25;;;;;19.68;61.91;101727.53;6342109;22;45827;-70
2021/07/16 04:54:07;;;;;;;;;5.25;5.25;;;;;19.70;62.16;101731.00;6313570;22;46129;-70
2021/07/16 04:56:33;;;;;;;;;5.75;5.25;;;;;19.72;62.28;101733.66;6313588;22;45304;-71
2021/07/16 04:58:58;;;;;;;;;5.00;4.00;;;;;19.62;62.56;101726.00;6342400;22;45202;-71
2021/07/16 05:01:25;;;;;;;;;6.75;4.75;;;;;19.61;62.63;101737.81;6341981;22;45445;-70
2021/07/16 05:03:52;;;;;;;;;3.25;3.25;;;;;19.58;62.58;101737.13;6339323;22;48408;-71
2021/07/16 05:06:18;;;;;;;;;7.25;6.00;;;;;19.69;62.81;101761.75;6342081;22;45491;-71
2021/07/16 05:08:44;;;;;;;;;5.75;5.75;;;;;19.55;62.42;101738.16;6342464;22;45262;-71
2021/07/16 05:11:10;;;;;;;;;5.50;4.50;;;;;19.52;62.72;101726.63;6342011;22;45402;-71
2021/07/16 05:13:37;;;;;;;;;5.00;4.00;;;;;19.76;62.97;101759.63;6341390;22;45407;-71
2021/07/16 05:16:06;;;;;;;;;4.00;4.00;;;;;19.76;62.85;101768.66;6341680;22;45543;-71
2021/07/16 05:18:32;;;;;;;;;6.25;6.25;;;;;19.54;63.16;101722.84;6341754;22;45179;-71
2021/07/16 05:20:58;;;;;;;;;8.00;7.75;;;;;19.41;62.98;101702.81;6341935;22;45262;-71
2021/07/16 05:23:24;;;;;;;;;5.00;4.00;;;;;19.78;63.12;101772.13;6341573;22;45337;-71
2021/07/16 05:25:50;;;;;;;;;8.25;6.00;;;;;19.51;62.70;101735.69;6341903;22;45416;-71
2021/07/16 05:28:15;;;;;;;;;5.00;5.00;;;;;19.49;62.99;101735.75;6341877;22;45373;-71
2021/07/16 05:30:41;;;;;;;;;4.50;4.50;;;;;19.50;63.12;101732.09;6341833;22;45346;-71
2021/07/16 05:33:06;;;;;;;;;6.75;5.50;;;;;19.77;63.27;101778.50;6340931;22;46242;-71
2021/07/16 05:35:32;;;;;;;;;5.00;5.00;;;;;19.70;62.86;101770.78;6341725;22;45267;-71
2021/07/16 05:37:57;;;;;;;;;7.50;6.75;;;;;19.46;63.25;101738.63;6342032;22;45244;-70
2021/07/16 05:40:23;;;;;;;;;7.00;5.25;;;;;19.51;63.04;101752.81;6313139;22;45407;-71
2021/07/16 05:42:49;;;;;;;;;8.75;5.50;;;;;19.29;63.21;101717.88;6341578;22;45594;-71
2021/07/16 05:45:14;;;;;;;;;6.00;6.00;;;;;19.48;63.39;101743.97;6341958;22;45226;-71
2021/07/16 05:47:40;;;;;;;;;4.00;4.00;;;;;19.55;63.35;101754.41;6341412;22;45162;-71
2021/07/16 05:50:06;;;;;;;;;5.25;3.75;;;;;19.46;63.43;101737.75;6341835;22;45294;-71
2021/07/16 05:52:32;;;;;;;;;5.00;5.00;;;;;19.68;63.39;101775.38;6341283;22;45503;-70
2021/07/16 05:54:58;;;;;;;;;4.50;4.50;;;;;19.46;62.88;101726.94;6341881;22;45389;-71
2021/07/16 05:57:23;;;;;;;;;8.50;6.00;;;;;19.59;63.04;101761.38;6341966;22;45336;-71
2021/07/16 05:59:49;;;;;;;;;6.50;6.50;;;;;19.50;62.90;101752.91;6342047;22;45327;-71
2021/07/16 06:02:14;;;;;;;;;6.00;6.00;;;;;19.82;62.79;101799.06;6341192;22;45518;-71
2021/07/16 06:04:39;;;;;;;;;6.25;5.00;;;;;19.52;62.83;101751.84;6341493;22;45352;-70
2021/07/16 06:07:05;;;;;;;;;4.25;4.25;;;;;19.82;62.96;101807.19;6342044;22;45227;-71
2021/07/16 06:09:30;;;;;;;;;5.25;5.25;;;;;19.62;62.94;101777.47;6341514;22;45416;-71
2021/07/16 06:11:56;;;;;;;;;3.00;3.00;;;;;19.67;63.25;101776.38;6341713;22;46167;-71
2021/07/16 06:14:22;;;;;;;;;5.00;5.00;;;;;19.56;62.46;101763.38;6341085;22;45302;-71
2021/07/16 06:16:49;;;;;;;;;4.00;4.00;;;;;19.66;63.01;101782.72;6341616;22;45331;-70
2021/07/16 06:19:16;;;;;;;;;5.25;5.25;;;;;19.56;62.78;101767.00;6341747;22;45409;-70
2021/07/16 06:21:42;;;;;;;;;5.50;5.50;;;;;19.82;62.82;101812.63;6341047;22;45629;-72
2021/07/16 06:24:07;;;;;;;;;5.50;5.00;;;;;19.41;62.77;101751.53;6339918;22;45147;-72
2021/07/16 06:26:35;;;;;;;;;4.50;4.50;;;;;19.52;62.60;101780.78;6311873;22;45317;-73
2021/07/16 06:29:02;;;;;;;;;4.50;4.50;;;;;19.69;62.96;101809.66;6341528;22;45374;-73
2021/07/16 06:31:27;;;;;;;;;4.75;4.75;;;;;19.50;62.89;101782.69;6341189;22;45376;-74
2021/07/16 06:33:52;;;;;;;;;5.75;5.25;;;;;19.68;62.91;101816.00;6313176;22;45239;-74
2021/07/16 06:36:18;;;;;;;;;3.75;3.75;;;;;19.45;62.89;101780.22;6341411;22;45338;-74
2021/07/16 06:38:43;;;;;;;;;5.00;3.50;;;;;19.32;62.91;101768.28;6341440;22;45167;-73
2021/07/16 06:41:09;;;;;;;;;5.75;4.00;;;;;19.43;62.98;101785.72;6340675;22;45215;-74
2021/07/16 06:43:35;;;;;;;;;3.00;3.00;;;;;19.61;63.13;101815.47;6340515;22;45215;-74
2021/07/16 06:46:00;;;;;;;;;4.00;4.00;;;;;19.36;63.21;101769.88;6341099;22;45231;-73
2021/07/16 06:48:26;;;;;;;;;2.75;2.75;;;;;19.62;62.93;101812.69;6312562;22;45243;-74
2021/07/16 06:50:51;;;;;;;;;4.25;3.00;;;;;19.68;63.11;101822.31;6340954;22;45215;-74
2021/07/16 06:53:17;;;;;;;;;2.50;2.50;;;;;19.57;62.79;101805.78;6340486;22;45235;-74
2021/07/16 06:55:42;;;;;;;;;4.00;4.00;;;;;19.56;63.23;101801.28;6313178;22;45296;-80
2021/07/16 06:58:07;;;;;;;;;4.00;4.00;;;;;19.55;63.34;101802.28;6313360;22;45487;-74
2021/07/16 07:00:34;;;;;;;;;6.50;4.25;;;;;19.55;63.19;101811.25;6338362;22;46472;-73
2021/07/16 07:03:02;;;;;;;;;2.25;2.25;;;;;19.45;62.95;101791.06;6336033;22;45391;-72
2021/07/16 07:05:28;;;;;;;;;2.50;2.50;;;;;19.63;62.78;101827.97;6339800;22;45337;-72
2021/07/16 07:07:53;;;;;;;;;2.75;2.75;;;;;19.49;62.74;101808.88;6339697;22;45503;-73
2021/07/16 07:10:19;;;;;;;;;2.50;2.25;;;;;19.70;62.95;101843.91;6333319;22;45367;-68
2021/07/16 07:12:45;;;;;;;;;4.00;3.00;;;;;19.52;62.92;101819.53;6309438;22;45371;-68
2021/07/16 07:15:11;;;;;;;;;4.00;3.25;;;;;19.55;63.00;101826.66;6339406;22;45650;-69
2021/07/16 07:17:37;;;;;;;;;4.75;4.75;;;;;19.53;63.00;101825.81;6339178;22;45452;-73
2021/07/16 07:20:04;;;;;;;;;3.25;3.25;;;;;19.39;62.97;101810.31;6338891;22;46298;-71
2021/07/16 07:22:29;;;;;;;;;4.25;3.00;;;;;19.65;63.09;101862.25;6336727;22;45337;-69
2021/07/16 07:24:55;;;;;;;;;2.25;2.00;;;;;19.55;62.98;101841.06;6311505;22;45334;-71
2021/07/16 07:27:20;;;;;;;;;3.25;3.25;;;;;19.47;63.21;101816.22;6339636;22;45356;-71
2021/07/16 07:29:46;;;;;;;;;2.75;2.75;;;;;19.53;62.91;101825.81;6338423;22;46412;-71
2021/07/16 07:32:11;;;;;;;;;2.00;2.00;;;;;19.75;62.99;101864.41;6310254;22;45301;-71
2021/07/16 07:34:36;;;;;;;;;3.75;2.50;;;;;19.52;62.97;101824.09;6339884;22;45274;-71
2021/07/16 07:37:02;;;;;;;;;3.00;2.00;;;;;19.58;63.01;101830.06;6339453;22;45584;-71
2021/07/16 07:39:28;;;;;;;;;3.25;1.75;;;;;19.51;62.73;101828.66;6339409;22;45305;-71
2021/07/16 07:41:54;;;;;;;;;4.25;3.00;;;;;19.69;62.98;101859.28;6334851;22;45315;-71
2021/07/16 07:44:19;;;;;;;;;2.00;2.00;;;;;19.69;62.83;101858.41;6340441;22;45401;-71
2021/07/16 07:46:44;;;;;;;;;1.50;1.50;;;;;19.61;62.58;101837.13;6340097;22;45525;-71
2021/07/16 07:49:13;;;;;;;;;3.50;1.00;;;;;19.60;62.63;101841.69;6340068;22;46460;-71
2021/07/16 07:51:39;;;;;;;;;1.75;1.75;;;;;19.55;62.72;101832.06;6339525;22;45380;-72
2021/07/16 07:54:05;;;;;;;;;2.00;2.00;;;;;19.69;62.56;101863.81;6333455;22;45394;-71
2021/07/16 07:56:32;;;;;;;;;2.50;1.75;;;;;19.54;62.20;101838.41;6338939;22;45541;-71
2021/07/16 07:58:58;;;;;;;;;1.50;1.50;;;;;19.38;62.77;101828.41;6337812;22;45386;-71
2021/07/16 08:01:24;;;;;;;;;2.00;2.00;;;;;19.36;63.08;101826.72;6338282;22;45262;-72
2021/07/16 08:03:50;;;;;;;;;2.25;1.75;;;;;19.71;62.53;101879.06;6337666;22;45592;-72
2021/07/16 08:06:15;;;;;;;;;2.00;2.00;;;;;19.54;62.31;101836.59;6338268;22;45448;-71
2021/07/16 08:08:41;;;;;;;;;2.25;1.50;;;;;19.47;62.66;101837.88;6336386;22;45461;-70
2021/07/16 08:11:06;;;;;;;;;1.75;1.75;;;;;19.68;62.27;101870.19;6340104;22;45509;-73
2021/07/16 08:13:32;;;;;;;;;2.50;2.00;;;;;19.68;62.17;101868.38;6340151;22;45259;-73
2021/07/16 08:16:01;;;;;;;;;3.00;2.00;;;;;19.57;62.59;101860.78;6311213;22;45540;-74
2021/07/16 08:18:27;;;;;;;;;2.00;1.25;;;;;19.54;61.95;101855.53;6337678;22;45459;-72
2021/07/16 08:20:52;;;;;;;;;3.25;2.00;;;;;19.75;62.00;101883.38;6340095;22;45287;-72
2021/07/16 08:23:47;;;;;;;;;1.00;1.00;;;;;19.59;61.98;101858.00;6339881;22;45175;-71
2021/07/16 08:26:15;;;;;;;;;2.00;0.00;;;;;19.57;61.71;101852.69;6329734;22;46239;-72
2021/07/16 08:28:40;;;;;;;;;1.00;1.00;;;;;19.55;61.38;101857.31;6310439;22;46109;-72
2021/07/16 08:31:06;;;;;;;;;1.00;1.00;;;;;19.51;61.39;101850.31;6339065;22;45270;-72
2021/07/16 08:33:34;;;;;;;;;1.25;1.00;;;;;19.49;61.60;101852.19;6337656;22;45271;-72
2021/07/16 08:35:59;;;;;;;;;1.00;1.00;;;;;19.80;61.73;101904.81;6338342;22;45536;-72
2021/07/16 08:38:25;;;;;;;;;0.50;0.50;;;;;19.59;61.74;101860.72;6338071;22;45333;-72
2021/07/16 08:40:51;;;;;;;;;1.00;1.00;;;;;19.65;61.43;101860.41;6339468;22;45352;-72
2021/07/16 08:43:18;;;;;;;;;1.00;1.00;;;;;19.84;61.74;101891.97;6339492;22;45314;-73
2021/07/16 08:45:47;;;;;;;;;1.00;1.00;;;;;19.85;61.54;101886.47;6339879;22;45452;-73
2021/07/16 08:48:14;;;;;;;;;0.00;0.00;;;;;19.72;61.11;101866.38;6339364;22;45887;-74
2021/07/16 08:50:40;;;;;;;;;1.50;1.50;;;;;19.54;61.38;101847.41;6340370;22;45453;-74
2021/07/16 08:53:14;;;;;;;;;1.00;1.00;;;;;19.51;61.68;101841.28;6341059;22;45439;-74
2021/07/16 08:55:42;;;;;;;;;1.00;1.00;;;;;19.51;61.54;101839.47;6341378;22;45419;-74
2021/07/16 08:58:14;;;;;;;;;1.00;1.00;;;;;19.72;61.55;101859.13;6341039;22;45421;-74
2021/07/16 09:00:45;;;;;;;;;0.50;0.50;;;;;19.53;61.34;101826.72;6340140;22;45624;-74
2021/07/16 09:03:11;;;;;;;;;1.00;1.00;;;;;19.86;61.05;101874.66;6340124;22;45333;-73
2021/07/16 09:05:40;;;;;;;;;1.75;1.75;;;;;19.60;61.47;101836.25;6341404;22;45440;-73
2021/07/16 09:08:13;;;;;;;;;2.00;2.00;;;;;19.69;61.24;101848.44;6340396;22;45952;-73
2021/07/16 09:10:59;;;;;;;;;3.00;1.00;;;;;19.92;61.38;101877.03;6340292;22;45392;-73
2021/07/16 09:13:26;;;;;;;;;1.00;1.00;;;;;20.17;61.03;101913.66;6312876;22;45346;-73
2021/07/16 09:15:54;;;;;;;;;1.25;1.25;;;;;19.91;60.60;101863.56;6341141;22;45325;-74
2021/07/16 09:18:23;;;;;;;;;3.75;2.25;;;;;20.24;61.01;101912.38;6340739;22;45130;-73
2021/07/16 09:21:03;;;;;;;;;5.25;5.25;;;;;19.95;60.55;101859.75;6340279;22;45702;-73
2021/07/16 09:23:43;;;;;;;;;3.00;3.00;;;;;20.16;61.13;101898.34;6340205;22;45767;-73
2021/07/16 09:26:23;;;;;;;;;5.25;4.00;;;;;20.28;61.36;101913.97;6340975;22;45275;-74
2021/07/16 09:28:50;;;;;;;;;2.50;2.50;;;;;19.86;61.12;101844.84;6341064;22;45625;-73
2021/07/16 09:31:19;;;;;;;;;4.00;4.00;;;;;19.89;60.85;101855.53;6311778;22;45342;-74
2021/07/16 09:33:51;;;;;;;;;3.00;3.00;;;;;19.94;61.23;101869.69;6340253;22;45378;-74
2021/07/16 09:36:40;;;;;;;;;4.75;3.00;;;;;20.21;61.08;101915.25;6341349;22;45353;-74
2021/07/16 09:39:51;;;;;;;;;3.75;3.25;;;;;20.22;61.45;101918.84;6340208;22;45275;-71
2021/07/16 09:44:49;;;;;;;;;4.25;3.25;;;;;20.05;60.58;101892.66;6310137;22;45325;-75
2021/07/16 09:47:18;;;;;;;;;2.75;2.50;;;;;19.93;60.38;101881.53;6309959;22;45266;-75
2021/07/16 09:50:05;;;;;;;;;2.75;2.75;;;;;19.85;60.44;101864.78;6309035;22;45237;-75
2021/07/16 09:52:31;;;;;;;;;2.00;2.00;;;;;19.95;60.23;101885.00;6289209;22;45360;-75
2021/07/16 09:55:06;;;;;;;;;3.00;3.00;;;;;20.19;60.27;101928.00;6313170;22;45387;-75
2021/07/16 09:57:50;;;;;;;;;2.00;2.00;;;;;19.80;60.42;101870.44;6341632;22;45622;-75
2021/07/16 10:00:23;;;;;;;;;4.00;2.00;;;;;20.19;60.54;101938.84;6341390;22;46359;-75
2021/07/16 10:02:51;;;;;;;;;4.25;4.00;;;;;19.83;60.64;101874.84;6312466;22;45184;-75
2021/07/16 10:05:18;;;;;;;;;3.00;3.00;;;;;19.89;60.46;101877.22;6341629;22;45220;-75
2021/07/16 10:07:48;;;;;;;;;3.50;3.50;;;;;19.93;60.52;101884.22;6341445;22;45380;-75
2021/07/16 10:10:24;;;;;;;;;6.00;3.50;;;;;20.19;60.44;101922.59;6341481;22;46101;-75
2021/07/16 10:12:50;;;;;;;;;3.50;3.50;;;;;20.23;60.68;101929.63;6341423;22;45412;-75
2021/07/16 10:15:19;;;;;;;;;4.00;3.50;;;;;20.26;60.53;101928.56;6341840;22;45301;-75
2021/07/16 10:17:44;;;;;;;;;4.50;4.00;;;;;20.28;60.14;101927.53;6341238;22;45249;-75
2021/07/16 10:20:19;;;;;;;;;3.75;3.75;;;;;20.09;60.67;101903.22;6312862;22;45863;-75
2021/07/16 10:23:07;;;;;;;;;3.25;3.25;;;;;20.13;60.33;101910.25;6341001;22;45315;-75
2021/07/16 10:25:34;;;;;;;;;5.25;5.00;;;;;20.07;59.99;101901.56;6313178;22;45239;-75
2021/07/16 10:28:00;;;;;;;;;6.00;3.00;;;;;19.92;59.60;101882.47;6340608;22;45433;-75
2021/07/16 10:30:31;;;;;;;;;3.25;3.25;;;;;19.86;59.93;101893.63;6341224;22;45360;-75
2021/07/16 10:33:02;;;;;;;;;2.00;2.00;;;;;20.20;59.97;101953.28;6340861;22;45466;-75
2021/07/16 10:35:38;;;;;;;;;3.50;3.50;;;;;19.72;59.40;101890.75;6313072;22;45310;-76
2021/07/16 10:38:34;;;;;;;;;8.25;6.75;;;;;20.09;59.72;101962.88;6341288;22;45432;-73
2021/07/16 10:41:01;;;;;;;;;5.00;5.00;;;;;19.69;59.55;101904.44;6341017;22;46145;-76
2021/07/16 10:43:27;;;;;;;;;8.25;5.50;;;;;20.06;60.14;101963.03;6312682;22;45350;-76
2021/07/16 10:45:59;;;;;;;;;7.50;7.50;;;;;19.61;60.17;101896.72;6341449;22;45310;-76
2021/07/16 10:48:33;;;;;;;;;9.25;8.00;;;;;19.60;60.21;101897.69;6341113;22;45200;-76
2021/07/16 10:51:20;;;;;;;;;;;;;;;;;;;;;
2021/07/16 10:53:46;;;;;;;;;8.00;7.50;;;;;19.61;59.65;101907.56;6340495;22;72916;-76
2021/07/16 10:56:13;;;;;;;;;6.50;6.50;;;;;19.57;59.61;101912.25;6312967;22;45483;-76
2021/07/16 10:58:39;;;;;;;;;9.75;8.00;;;;;20.02;59.52;101976.84;6341358;22;45093;-76
2021/07/16 11:01:09;;;;;;;;;11.25;6.50;;;;;19.89;59.63;101963.03;6340897;22;45393;-76
2021/07/16 11:03:47;;;;;;;;;8.25;6.50;;;;;19.98;59.52;101984.25;6312684;22;45773;-76
2021/07/16 11:06:17;;;;;;;;;7.50;7.00;;;;;19.62;59.88;101929.13;6341326;22;45074;-76
2021/07/16 11:08:42;;;;;;;;;9.25;8.25;;;;;19.98;59.54;101984.25;6341389;22;45611;-76
2021/07/16 11:11:12;;;;;;;;;9.00;9.00;;;;;19.52;59.65;101914.31;6341037;22;46047;-76
2021/07/16 11:13:48;;;;;;;;;8.25;6.50;;;;;19.49;59.54;101911.78;6338981;22;45450;-76
2021/07/16 11:16:23;;;;;;;;;7.75;7.50;;;;;19.94;59.21;101988.94;6340710;22;45143;-76
2021/07/16 11:18:57;;;;;;;;;13.00;6.00;;;;;19.80;59.14;101965.28;6340737;22;45252;-76
2021/07/16 11:21:49;;;;;;;;;6.25;5.00;;;;;19.94;59.21;101991.66;6340733;22;46215;-76
2021/07/16 11:24:14;;;;;;;;;8.25;8.25;;;;;19.92;58.57;101988.16;6340317;22;45519;-76
2021/07/16 11:26:53;;;;;;;;;8.00;8.00;;;;;19.89;59.00;101996.44;6340986;22;45144;-76
2021/07/16 11:29:26;;;;;;;;;7.00;7.00;;;;;19.89;58.92;101982.00;6338066;22;45268;-78